Portada
METAR-TAF:

METAR-TAF

Aeropuertos :

Aurillac, Francia

latitud: 44-53N, longitud: 002-25E, altitud: 639 m

Observación

El informe se hizo hace 15 minutos, a las 02:00 UTC
Viento 7 kt del este
Temperatura 8°C
Humedad 49%
Presión 1026 hPa
Visibilidad 10 km o más
sin nubes por debajo de 1500 m y sin presencia de cumulonimbus.

METAR: LFLW 020200Z AUTO 10007KT CAVOK 08/M02 Q1026

Hora: 03:15 (02:15 UTC)

Pronóstico

El informe se hizo hace 12 horas y 15 minutos, a las 14:00 UTC
Pronóstico válido del 01 a las 15 UTC al 01 a las 24 UTC
Viento 10 kt del sureste
Visibilidad 10 km o más
sin nubes por debajo de 1500 m y sin presencia de cumulonimbus.

TAF: LFLW 011400Z 0115/0124 14010KT CAVOK

Observaciones y pronósticos meteorológicos de más de 4000 aeropuertos (mensajes METAR y TAF).

Los puntos amarillos y rojos representan las estaciones disponibles.

Ponga el ratón en el punto deseado para ver el nombre de la estación.

Haga clic para ver las observaciones y los pronósticos meteorológicos.

Para cambiar el mapa : haga clic en los botones verdes con una cruz de color negro para hacer un zoom, en el botón verde con un guión para alejar o en las flechas verdes para mapas adyacentes.


METAR-TAF: